Time;durP1;ratioP1;P1;durP2;ratioP2;P2;SDS_P1;SDS_P2;PMS_P1;PMS_P2;Temp;Humidity;BMP_temperature;BMP_pressure;BME280_temperature;BME280_humidity;BME280_pressure;Samples;Min_cycle;Max_cycle;Signal;HPM_P1;HPM_P2
2022/07/05 00:01:52;;;;;;;3.17;2.97;;;23.20;38.10;;;;;;10324732;28;20242;-68
2022/07/05 00:12:18;;;;;;;3.30;2.70;;;23.30;38.30;;;;;;10325890;28;20318;-71
2022/07/05 00:17:24;;;;;;;2.70;2.50;;;23.30;38.50;;;;;;10324389;28;20288;-71
2022/07/05 00:22:28;;;;;;;3.07;2.73;;;23.40;39.50;;;;;;10322786;28;20227;-71
2022/07/05 00:27:32;;;;;;;2.97;2.67;;;23.40;38.30;;;;;;10325284;28;20242;-71
2022/07/05 00:32:37;;;;;;;2.80;2.60;;;23.50;38.60;;;;;;10319627;28;20235;-71
2022/07/05 00:37:41;;;;;;;2.73;2.53;;;23.50;39.60;;;;;;10314343;28;20584;-72
2022/07/05 00:42:44;;;;;;;2.77;2.63;;;23.40;38.70;;;;;;10324152;28;20242;-72
2022/07/05 00:47:48;;;;;;;3.23;2.87;;;23.40;38.90;;;;;;10317947;28;20719;-72
2022/07/05 00:52:55;;;;;;;3.27;2.97;;;23.40;39.50;;;;;;10322141;28;20746;-72
2022/07/05 00:57:58;;;;;;;4.57;3.40;;;23.30;40.10;;;;;;10313130;28;20893;-72
2022/07/05 01:03:04;;;;;;;3.40;2.70;;;23.20;39.30;;;;;;10316516;28;20223;-71
2022/07/05 01:08:07;;;;;;;2.97;2.70;;;23.20;40.20;;;;;;10320034;28;20864;-72
2022/07/05 01:13:11;;;;;;;2.50;2.30;;;23.10;39.20;;;;;;10319031;28;21183;-72
2022/07/05 01:18:16;;;;;;;4.07;2.50;;;23.10;39.20;;;;;;10317987;28;20226;-72
2022/07/05 01:23:21;;;;;;;3.33;2.60;;;23.10;40.00;;;;;;10312100;28;20230;-73
2022/07/05 01:28:27;;;;;;;2.83;2.63;;;23.10;40.40;;;;;;10321726;28;20764;-72
2022/07/05 01:33:31;;;;;;;3.53;3.23;;;23.20;39.90;;;;;;10326347;28;20234;-73
2022/07/05 01:38:35;;;;;;;2.80;2.60;;;23.20;39.70;;;;;;10315005;28;20779;-72
2022/07/05 01:43:40;;;;;;;3.17;2.67;;;23.20;40.10;;;;;;10324162;28;20281;-72
2022/07/05 01:48:43;;;;;;;3.53;2.60;;;23.10;39.20;;;;;;10318138;28;20226;-72
2022/07/05 01:53:52;;;;;;;3.60;3.10;;;23.00;39.60;;;;;;10321466;28;20596;-72
2022/07/05 01:58:57;;;;;;;2.97;2.67;;;22.90;41.30;;;;;;10321888;28;20231;-72
2022/07/05 02:04:00;;;;;;;2.80;2.60;;;22.70;40.30;;;;;;10313902;28;20987;-72
2022/07/05 02:09:07;;;;;;;3.10;2.83;;;22.70;40.30;;;;;;10325607;28;20229;-72
2022/07/05 02:14:11;;;;;;;3.00;2.73;;;22.70;41.30;;;;;;10325693;28;20696;-72
2022/07/05 02:19:14;;;;;;;3.00;2.80;;;22.70;40.50;;;;;;10325936;28;20234;-72
2022/07/05 02:24:20;;;;;;;2.73;2.47;;;22.70;40.40;;;;;;10322545;28;20231;-72
2022/07/05 02:29:23;;;;;;;2.90;2.60;;;22.80;40.60;;;;;;10317957;28;20232;-72
2022/07/05 02:34:26;;;;;;;2.67;2.30;;;22.80;40.30;;;;;;10327417;28;20352;-72
2022/07/05 02:39:31;;;;;;;2.77;2.50;;;22.90;40.00;;;;;;10325619;28;20236;-72
2022/07/05 02:44:34;;;;;;;2.87;2.67;;;22.90;40.70;;;;;;10326346;28;20242;-72
2022/07/05 02:49:38;;;;;;;3.00;2.80;;;23.00;39.80;;;;;;10325718;28;20249;-72
2022/07/05 02:54:42;;;;;;;3.33;2.70;;;22.90;39.60;;;;;;10320685;28;20231;-72
2022/07/05 02:59:46;;;;;;;3.33;3.10;;;22.90;40.40;;;;;;10328875;28;20227;-71
2022/07/05 03:04:50;;;;;;;3.27;3.00;;;22.80;39.70;;;;;;10330793;28;20226;-74
2022/07/05 03:09:54;;;;;;;3.40;2.80;;;22.60;39.90;;;;;;10330404;28;20498;-73
2022/07/05 03:14:58;;;;;;;3.10;2.80;;;22.60;40.60;;;;;;10330326;28;20704;-74
2022/07/05 03:20:01;;;;;;;3.57;3.10;;;22.40;40.10;;;;;;10324406;28;23487;-73
2022/07/05 03:25:06;;;;;;;2.90;2.70;;;22.20;40.20;;;;;;10317282;28;20242;-74
2022/07/05 03:30:11;;;;;;;3.10;2.77;;;22.20;41.20;;;;;;10322431;28;20745;-73
2022/07/05 03:35:14;;;;;;;3.13;2.83;;;22.10;40.80;;;;;;10325148;28;20581;-73
2022/07/05 03:40:19;;;;;;;3.40;3.07;;;22.00;40.70;;;;;;10321663;28;20234;-73
2022/07/05 03:45:22;;;;;;;5.20;3.00;;;21.90;41.10;;;;;;10322611;28;20234;-73
2022/07/05 03:50:26;;;;;;;3.20;2.90;;;21.80;40.70;;;;;;10313990;28;21023;-73
2022/07/05 03:55:30;;;;;;;3.07;2.87;;;21.80;41.10;;;;;;10325828;28;20230;-73
2022/07/05 04:00:34;;;;;;;4.77;3.07;;;21.80;41.60;;;;;;10324784;28;20233;-73
2022/07/05 04:05:39;;;;;;;3.20;2.90;;;21.80;41.10;;;;;;10325481;28;20309;-73
2022/07/05 04:10:43;;;;;;;4.13;3.27;;;21.80;41.20;;;;;;10321205;28;20226;-73
2022/07/05 04:15:46;;;;;;;4.23;3.13;;;21.80;41.70;;;;;;10321484;28;20227;-73
2022/07/05 04:20:50;;;;;;;4.80;3.50;;;21.80;41.10;;;;;;10316470;28;20234;-73
2022/07/05 04:25:55;;;;;;;4.10;3.03;;;21.80;41.20;;;;;;10310899;28;20237;-73
2022/07/05 04:30:58;;;;;;;4.97;3.57;;;21.80;41.80;;;;;;10321005;28;20230;-73
2022/07/05 04:36:01;;;;;;;5.33;3.80;;;21.80;41.40;;;;;;10321690;28;20994;-73
2022/07/05 04:41:06;;;;;;;6.33;3.70;;;21.70;41.60;;;;;;10321788;28;20702;-72
2022/07/05 04:46:09;;;;;;;5.17;3.50;;;21.70;42.30;;;;;;10324790;28;20226;-74
2022/07/05 04:51:12;;;;;;;3.97;3.27;;;21.80;41.90;;;;;;10323126;28;20231;-74
2022/07/05 04:56:17;;;;;;;3.77;3.47;;;21.80;42.10;;;;;;10319193;28;20223;-73
2022/07/05 05:01:20;;;;;;;4.00;3.20;;;21.80;42.70;;;;;;10320179;28;20226;-77
2022/07/05 05:06:24;;;;;;;2.87;2.67;;;21.90;42.00;;;;;;10317691;28;20231;-74
2022/07/05 05:11:28;;;;;;;4.67;3.03;;;21.90;41.90;;;;;;10320516;28;20235;-75
2022/07/05 05:16:31;;;;;;;2.53;2.27;;;22.00;42.50;;;;;;10316991;28;20242;-75
2022/07/05 05:21:35;;;;;;;2.70;2.50;;;22.10;40.90;;;;;;10314284;28;20227;-75
2022/07/05 05:26:39;;;;;;;2.80;2.60;;;22.20;40.60;;;;;;10314299;28;20246;-71
2022/07/05 05:31:43;;;;;;;2.40;2.20;;;22.30;40.70;;;;;;10316538;28;20231;-70
2022/07/05 05:36:46;;;;;;;2.30;2.10;;;22.30;40.50;;;;;;10315544;28;20246;-70
2022/07/05 05:41:51;;;;;;;2.40;2.20;;;22.40;39.80;;;;;;10321131;28;20237;-75
2022/07/05 05:46:54;;;;;;;2.67;2.03;;;22.60;39.80;;;;;;10325797;28;20601;-75
2022/07/05 05:51:57;;;;;;;2.40;2.20;;;22.70;38.90;;;;;;10333982;28;20246;-76
2022/07/05 05:57:02;;;;;;;2.27;2.00;;;22.70;39.40;;;;;;10330402;28;20625;-74
2022/07/05 06:02:05;;;;;;;2.13;2.03;;;22.90;39.10;;;;;;10328382;28;20222;-76
2022/07/05 06:07:08;;;;;;;2.20;1.70;;;23.00;39.20;;;;;;10323671;28;20227;-74
2022/07/05 06:12:14;;;;;;;1.67;1.57;;;23.10;37.70;;;;;;10321261;28;20760;-73
2022/07/05 06:17:17;;;;;;;1.53;1.43;;;23.20;37.10;;;;;;10325500;28;20234;-74
2022/07/05 06:22:20;;;;;;;2.10;1.60;;;23.30;37.40;;;;;;10324915;28;20315;-74
2022/07/05 06:27:25;;;;;;;1.70;1.60;;;23.30;37.00;;;;;;10326879;28;20718;-74
2022/07/05 06:32:34;;;;;;;2.47;1.70;;;23.40;36.50;;;;;;10328951;28;20321;-70
2022/07/05 06:37:44;;;;;;;1.70;1.60;;;23.40;37.10;;;;;;10325062;28;20222;-70
2022/07/05 06:42:49;;;;;;;2.10;1.90;;;23.50;36.20;;;;;;10323496;28;20250;-70
2022/07/05 06:47:56;;;;;;;2.10;1.70;;;23.60;36.30;;;;;;10325640;28;20723;-70
2022/07/05 06:53:00;;;;;;;2.20;1.60;;;23.80;35.90;;;;;;10322134;28;20675;-74
2022/07/05 06:58:06;;;;;;;4.47;1.80;;;23.80;35.90;;;;;;10331790;28;20709;-73
2022/07/05 07:03:16;;;;;;;2.17;1.97;;;24.00;35.50;;;;;;10326129;28;20251;-75
2022/07/05 07:14:02;;;;;;;2.87;1.70;;;24.30;36.10;;;;;;10320021;28;20229;-74
2022/07/05 07:19:05;;;;;;;1.90;1.80;;;24.40;36.00;;;;;;10318200;28;20223;-74
2022/07/05 07:24:17;;;;;;;2.13;1.77;;;24.50;35.80;;;;;;10321357;28;20310;-74
2022/07/05 07:29:21;;;;;;;4.00;2.10;;;24.70;35.80;;;;;;10322872;28;20235;-75
2022/07/05 07:34:25;;;;;;;3.17;1.87;;;24.80;35.00;;;;;;10325645;28;20234;-75
2022/07/05 07:39:29;;;;;;;2.07;1.80;;;25.00;35.10;;;;;;10324316;28;20591;-73
2022/07/05 07:44:32;;;;;;;3.47;1.90;;;25.10;35.00;;;;;;10316356;28;20239;-74
2022/07/05 07:49:36;;;;;;;2.07;1.70;;;25.20;34.20;;;;;;10329128;28;20822;-74
2022/07/05 07:54:39;;;;;;;1.80;1.70;;;25.40;35.00;;;;;;10317252;28;20591;-70
2022/07/05 07:59:44;;;;;;;2.07;1.80;;;25.50;34.70;;;;;;10324357;28;20238;-70
2022/07/05 08:04:47;;;;;;;2.00;1.90;;;25.70;34.10;;;;;;10324313;28;20231;-70
2022/07/05 08:09:52;;;;;;;2.23;2.00;;;25.80;34.00;;;;;;10327680;28;23389;-73
2022/07/05 08:14:57;;;;;;;1.80;1.70;;;26.00;33.00;;;;;;10317797;28;20238;-73
2022/07/05 08:25:20;;;;;;;2.47;1.97;;;26.20;32.90;;;;;;10322528;28;20229;-75
2022/07/05 08:30:25;;;;;;;1.90;1.80;;;26.30;32.30;;;;;;10324627;28;20230;-75
2022/07/05 08:35:28;;;;;;;2.50;1.77;;;26.40;31.70;;;;;;10324577;28;20261;-70
2022/07/05 08:40:38;;;;;;;1.80;1.70;;;26.60;32.20;;;;;;10323667;28;20749;-70
2022/07/05 08:45:44;;;;;;;3.17;1.90;;;26.80;30.30;;;;;;10319197;28;20223;-70
2022/07/05 08:50:50;;;;;;;1.93;1.80;;;27.00;29.70;;;;;;10324552;28;20809;-70
2022/07/05 08:56:00;;;;;;;2.67;1.93;;;27.20;30.20;;;;;;10316961;28;20702;-70
2022/07/05 09:01:05;;;;;;;2.00;1.90;;;27.40;29.90;;;;;;10322483;28;20238;-70
2022/07/05 09:06:10;;;;;;;1.97;1.70;;;27.60;29.40;;;;;;10322100;28;20620;-70
2022/07/05 09:11:15;;;;;;;1.97;1.70;;;27.80;29.50;;;;;;10318245;28;20237;-70
2022/07/05 09:16:20;;;;;;;1.90;1.80;;;28.00;28.80;;;;;;10318219;28;20227;-70
2022/07/05 09:21:24;;;;;;;1.73;1.60;;;28.10;28.60;;;;;;10316730;28;20241;-70
2022/07/05 09:26:33;;;;;;;1.60;1.50;;;28.30;28.70;;;;;;10320878;28;20226;-70
2022/07/05 09:31:39;;;;;;;1.90;1.80;;;28.50;27.20;;;;;;10325647;28;20239;-70
2022/07/05 09:36:53;;;;;;;1.27;1.27;;;28.60;26.60;;;;;;10320522;28;20229;-75
2022/07/05 09:42:13;;;;;;;1.73;1.63;;;28.70;25.40;;;;;;10323540;28;20238;-75
2022/07/05 09:47:19;;;;;;;2.73;1.60;;;28.80;26.70;;;;;;10315255;28;20219;-75
2022/07/05 09:52:29;;;;;;;2.80;1.57;;;28.90;25.30;;;;;;10316378;28;20235;-75
2022/07/05 09:57:33;;;;;;;3.07;1.60;;;28.90;25.50;;;;;;10316180;28;20754;-75
2022/07/05 10:02:42;;;;;;;1.70;1.20;;;28.90;25.40;;;;;;10322411;28;20231;-75
2022/07/05 10:07:47;;;;;;;1.50;1.40;;;29.00;23.80;;;;;;10325720;28;20231;-75
2022/07/05 10:12:52;;;;;;;1.80;1.47;;;29.10;24.80;;;;;;10322099;28;20230;-75
2022/07/05 10:18:03;;;;;;;1.53;1.30;;;29.20;23.90;;;;;;10316823;28;20242;-70
2022/07/05 10:23:08;;;;;;;1.20;1.20;;;29.20;22.40;;;;;;10321373;28;20223;-70
2022/07/05 10:28:12;;;;;;;1.40;1.30;;;29.20;24.00;;;;;;10323102;28;20230;-70
2022/07/05 10:33:20;;;;;;;1.50;1.40;;;29.20;23.10;;;;;;10325962;28;20231;-73
2022/07/05 10:38:24;;;;;;;1.33;1.23;;;29.20;22.60;;;;;;10326459;28;20230;-73
2022/07/05 10:43:29;;;;;;;1.63;1.30;;;29.30;23.30;;;;;;10329548;28;20246;-73
2022/07/05 10:48:33;;;;;;;1.57;1.20;;;29.40;22.00;;;;;;10326037;28;20226;-73
2022/07/05 10:54:04;;;;;;;1.47;1.30;;;29.50;21.90;;;;;;10326032;28;20230;-73
2022/07/05 10:59:11;;;;;;;1.90;1.30;;;29.60;20.90;;;;;;10317818;28;20274;-73
2022/07/05 11:04:35;;;;;;;1.27;1.17;;;29.60;20.70;;;;;;10323132;28;20285;-73
2022/07/05 11:09:58;;;;;;;1.30;1.20;;;29.70;20.90;;;;;;10323769;28;20234;-73
2022/07/05 11:15:07;;;;;;;1.40;1.30;;;29.80;21.00;;;;;;10321724;28;20230;-74
2022/07/05 11:20:20;;;;;;;1.13;1.13;;;29.90;19.90;;;;;;10325288;28;20235;-75
2022/07/05 11:25:24;;;;;;;1.53;1.10;;;30.10;19.80;;;;;;10321024;28;20300;-75
2022/07/05 11:30:27;;;;;;;2.23;1.20;;;30.20;20.40;;;;;;10324605;28;20793;-70
2022/07/05 11:35:34;;;;;;;1.63;1.30;;;30.30;20.50;;;;;;10306455;28;20613;-70
2022/07/05 11:40:38;;;;;;;1.50;1.20;;;30.30;19.10;;;;;;10294424;28;20246;-70
2022/07/05 11:45:41;;;;;;;1.30;1.20;;;30.30;20.10;;;;;;10309233;28;20876;-73
2022/07/05 11:50:46;;;;;;;1.57;1.20;;;30.30;20.00;;;;;;10303194;28;20243;-73
2022/07/05 11:55:55;;;;;;;1.20;1.20;;;30.20;19.20;;;;;;10302884;28;20229;-75
2022/07/05 12:00:58;;;;;;;1.97;1.23;;;30.00;18.30;;;;;;10301552;28;20266;-75
2022/07/05 12:06:15;;;;;;;1.43;1.33;;;29.90;19.50;;;;;;10304688;28;20324;-75
2022/07/05 12:16:39;;;;;;;1.90;1.27;;;30.00;19.70;;;;;;10308844;28;20313;-76
2022/07/05 12:21:53;;;;;;;1.60;1.50;;;30.10;19.60;;;;;;10302446;28;20230;-74
2022/07/05 12:26:57;;;;;;;1.27;1.10;;;30.10;17.20;;;;;;10303596;28;20226;-73
2022/07/05 12:32:02;;;;;;;1.40;1.30;;;30.10;18.60;;;;;;10302253;28;20243;-73
2022/07/05 12:37:07;;;;;;;1.27;1.20;;;30.10;19.10;;;;;;10305080;28;20817;-73
2022/07/05 12:42:10;;;;;;;1.17;1.17;;;30.10;18.40;;;;;;10296381;28;20231;-73
2022/07/05 12:47:13;;;;;;;1.20;1.20;;;30.20;18.60;;;;;;10302937;28;20230;-74
2022/07/05 12:52:18;;;;;;;1.90;1.23;;;30.30;18.70;;;;;;10301546;28;21000;-73
2022/07/05 13:02:51;;;;;;;1.83;1.20;;;30.50;18.50;;;;;;10279524;28;20241;-73
2022/07/05 13:07:55;;;;;;;1.30;1.20;;;30.50;18.10;;;;;;10305056;28;20226;-73
2022/07/05 13:12:59;;;;;;;1.10;1.10;;;30.40;17.60;;;;;;10295351;28;20238;-73
2022/07/05 13:18:02;;;;;;;4.20;1.40;;;30.30;17.80;;;;;;10307481;28;20215;-73
2022/07/05 13:23:07;;;;;;;1.27;1.17;;;30.30;17.80;;;;;;10308322;28;20309;-73
2022/07/05 13:28:10;;;;;;;3.00;1.50;;;30.20;16.80;;;;;;10311515;28;20222;-75
2022/07/05 13:33:13;;;;;;;1.10;1.10;;;30.20;17.00;;;;;;10316305;28;21194;-75
2022/07/05 13:38:18;;;;;;;1.30;1.20;;;30.10;17.30;;;;;;10312408;28;20227;-70
2022/07/05 13:43:21;;;;;;;1.27;1.27;;;30.20;17.10;;;;;;10308748;28;20451;-70
2022/07/05 13:48:24;;;;;;;1.53;1.20;;;30.30;17.10;;;;;;10312862;28;20238;-70
2022/07/05 13:53:29;;;;;;;2.97;1.20;;;30.40;17.10;;;;;;10308252;28;20238;-70
2022/07/05 13:58:32;;;;;;;1.70;1.13;;;30.50;16.70;;;;;;10316577;28;20602;-70
2022/07/05 14:03:35;;;;;;;2.00;1.20;;;30.60;16.50;;;;;;10322173;28;20241;-70
2022/07/05 14:08:42;;;;;;;1.30;1.20;;;30.70;16.50;;;;;;10323832;28;20227;-70
2022/07/05 14:13:45;;;;;;;1.00;1.00;;;30.70;15.80;;;;;;10311975;28;20234;-70
2022/07/05 14:18:49;;;;;;;1.03;1.03;;;30.70;16.20;;;;;;10314262;28;20258;-70
2022/07/05 14:23:54;;;;;;;1.30;1.10;;;30.90;16.20;;;;;;10317528;28;20237;-70
2022/07/05 14:28:57;;;;;;;1.17;1.17;;;30.90;15.40;;;;;;10310409;28;20237;-73
2022/07/05 14:34:00;;;;;;;1.33;1.23;;;31.00;15.80;;;;;;10310704;28;20230;-70
2022/07/05 14:39:05;;;;;;;2.10;1.20;;;31.00;16.40;;;;;;10310976;28;20250;-71
2022/07/05 14:44:08;;;;;;;1.20;1.10;;;31.10;15.10;;;;;;10316112;28;20682;-71
2022/07/05 14:49:11;;;;;;;0.90;0.90;;;31.10;15.30;;;;;;10319967;28;20223;-73
2022/07/05 14:54:16;;;;;;;1.20;1.10;;;31.10;15.30;;;;;;10322748;28;20995;-73
2022/07/05 14:59:19;;;;;;;1.20;1.10;;;31.10;15.10;;;;;;10321299;28;20795;-71
2022/07/05 15:04:22;;;;;;;1.43;1.00;;;31.10;15.00;;;;;;10323676;28;20345;-73
2022/07/05 15:09:27;;;;;;;1.23;1.00;;;31.10;15.00;;;;;;10328731;28;20569;-72
2022/07/05 15:14:30;;;;;;;1.23;1.17;;;31.10;14.60;;;;;;10324601;28;20788;-72
2022/07/05 15:19:33;;;;;;;1.60;1.17;;;31.10;14.80;;;;;;10321559;28;20233;-73
2022/07/05 15:24:38;;;;;;;1.30;1.20;;;31.10;14.80;;;;;;10325773;28;20230;-73
2022/07/05 15:29:41;;;;;;;3.30;1.10;;;31.20;14.00;;;;;;10321540;28;20231;-73
2022/07/05 15:34:44;;;;;;;1.10;1.10;;;31.20;14.50;;;;;;10328300;28;20240;-73
2022/07/05 15:39:49;;;;;;;1.40;1.20;;;31.30;14.00;;;;;;10324668;28;20223;-73
2022/07/05 15:44:52;;;;;;;1.10;1.10;;;31.30;13.20;;;;;;10317440;28;20235;-72
2022/07/05 15:50:06;;;;;;;1.00;1.00;;;31.30;13.80;;;;;;10324858;28;20227;-72
2022/07/05 15:55:11;;;;;;;1.43;1.20;;;31.30;13.40;;;;;;10321781;28;20245;-72
2022/07/05 16:00:15;;;;;;;1.07;1.00;;;31.30;13.40;;;;;;10322586;28;20248;-73
2022/07/05 16:05:19;;;;;;;1.00;1.00;;;31.30;13.30;;;;;;10326378;28;20727;-73
2022/07/05 16:10:26;;;;;;;1.67;1.10;;;31.30;13.30;;;;;;10324086;28;20245;-75
2022/07/05 16:21:00;;;;;;;1.57;1.00;;;31.30;13.50;;;;;;10325607;28;20237;-75
2022/07/05 16:26:14;;;;;;;1.27;1.00;;;31.30;13.40;;;;;;10317639;28;20225;-75
2022/07/05 16:31:18;;;;;;;1.10;1.00;;;31.40;12.50;;;;;;10321882;28;20233;-74
2022/07/05 16:36:23;;;;;;;1.30;1.20;;;31.40;13.00;;;;;;10319752;28;20301;-74
2022/07/05 16:41:27;;;;;;;1.17;1.10;;;31.40;12.50;;;;;;10318101;28;20230;-74
2022/07/05 16:46:31;;;;;;;1.00;1.00;;;31.30;11.90;;;;;;10317813;28;20587;-74
2022/07/05 16:51:35;;;;;;;1.60;1.10;;;31.30;12.10;;;;;;10320329;28;20226;-75
2022/07/05 16:56:39;;;;;;;2.50;0.90;;;31.20;11.80;;;;;;10317037;28;20238;-75
2022/07/05 17:01:43;;;;;;;1.10;1.10;;;31.20;11.30;;;;;;10315895;28;20731;-75
2022/07/05 17:06:46;;;;;;;1.53;1.10;;;31.20;12.10;;;;;;10316672;28;20312;-74
2022/07/05 17:11:51;;;;;;;1.10;1.00;;;31.30;12.60;;;;;;10314091;28;20246;-75
2022/07/05 17:16:54;;;;;;;1.20;1.10;;;31.30;12.10;;;;;;10321228;28;20714;-74
2022/07/05 17:21:57;;;;;;;1.17;1.07;;;31.30;12.10;;;;;;10314727;28;20236;-75
2022/07/05 17:27:02;;;;;;;0.97;0.97;;;31.30;12.20;;;;;;10301511;28;20266;-74
2022/07/05 17:32:06;;;;;;;0.97;0.97;;;31.30;12.00;;;;;;10305516;28;20227;-75
2022/07/05 17:37:09;;;;;;;0.80;0.80;;;31.20;12.00;;;;;;10298853;28;20230;-75
2022/07/05 17:42:14;;;;;;;1.77;1.20;;;31.20;12.10;;;;;;10303385;28;20240;-74
2022/07/05 17:47:17;;;;;;;1.23;1.20;;;31.10;12.00;;;;;;10310950;28;20946;-75
2022/07/05 17:52:20;;;;;;;1.20;1.10;;;31.00;12.20;;;;;;10318182;28;20234;-75
2022/07/05 17:57:25;;;;;;;1.00;1.00;;;30.90;12.40;;;;;;10318056;28;20963;-75
2022/07/05 18:02:28;;;;;;;1.97;1.13;;;30.90;12.20;;;;;;10314871;28;20277;-74
2022/07/05 18:07:32;;;;;;;1.20;1.10;;;30.80;12.60;;;;;;10308280;28;20218;-74
2022/07/05 18:12:36;;;;;;;1.13;1.00;;;30.80;12.70;;;;;;10322245;28;20227;-75
2022/07/05 18:17:39;;;;;;;1.20;1.10;;;30.70;12.50;;;;;;10313612;28;20234;-75
2022/07/05 18:22:43;;;;;;;1.00;1.00;;;30.60;12.70;;;;;;10317703;28;20231;-74
2022/07/05 18:27:47;;;;;;;1.20;1.10;;;30.50;13.00;;;;;;10318452;28;20230;-75
2022/07/05 18:32:50;;;;;;;0.83;0.83;;;30.40;13.10;;;;;;10318091;28;20231;-74
2022/07/05 18:37:54;;;;;;;2.00;1.30;;;30.40;13.10;;;;;;10322343;28;20238;-75
2022/07/05 18:42:58;;;;;;;0.97;0.97;;;30.30;13.10;;;;;;10320341;28;20246;-75
2022/07/05 18:48:01;;;;;;;1.23;1.13;;;30.20;13.20;;;;;;10322015;28;20223;-75
2022/07/05 18:53:05;;;;;;;1.50;1.03;;;30.00;13.30;;;;;;10312303;28;20223;-75
2022/07/05 18:58:10;;;;;;;1.60;1.20;;;29.80;13.50;;;;;;10310456;28;20234;-75
2022/07/05 19:03:13;;;;;;;1.37;1.20;;;29.70;13.50;;;;;;10313132;28;20241;-75
2022/07/05 19:13:41;;;;;;;2.53;1.23;;;29.40;13.90;;;;;;10312712;28;20235;-75
2022/07/05 19:18:45;;;;;;;1.00;1.00;;;29.40;14.20;;;;;;10313955;28;20226;-76
2022/07/05 19:23:48;;;;;;;1.53;1.10;;;29.30;14.60;;;;;;10298201;28;20227;-76
2022/07/05 19:28:53;;;;;;;1.40;1.30;;;29.20;14.30;;;;;;10324915;28;20796;-76
2022/07/05 19:33:56;;;;;;;1.03;1.03;;;29.20;14.60;;;;;;10307660;28;20763;-75
2022/07/05 19:38:59;;;;;;;1.13;1.07;;;29.00;14.60;;;;;;10304147;28;20235;-76
2022/07/05 19:44:05;;;;;;;2.03;1.30;;;28.90;15.10;;;;;;10307314;28;20234;-75
2022/07/05 19:49:10;;;;;;;1.33;1.20;;;28.80;15.40;;;;;;10298863;28;20301;-73
2022/07/05 19:54:13;;;;;;;1.20;1.10;;;28.60;15.40;;;;;;10307754;28;20227;-73
2022/07/05 19:59:18;;;;;;;1.70;1.40;;;28.40;15.30;;;;;;10308018;28;20898;-73
2022/07/05 20:04:22;;;;;;;1.33;1.20;;;28.20;15.70;;;;;;10314366;28;20249;-73
2022/07/05 20:09:25;;;;;;;1.10;1.10;;;28.10;16.00;;;;;;10312364;28;20699;-73
2022/07/05 20:14:30;;;;;;;4.80;1.60;;;28.00;16.20;;;;;;10311695;28;20250;-73
2022/07/05 20:19:34;;;;;;;2.93;1.30;;;27.90;16.60;;;;;;10313657;28;20253;-73
2022/07/05 20:24:37;;;;;;;1.43;1.10;;;27.80;16.60;;;;;;10305888;28;20234;-73
2022/07/05 20:29:42;;;;;;;1.40;1.30;;;27.60;16.60;;;;;;10308807;28;20691;-73
2022/07/05 20:34:45;;;;;;;1.40;1.30;;;27.50;17.10;;;;;;10304304;28;20227;-73
2022/07/05 20:39:49;;;;;;;1.30;1.20;;;27.40;17.10;;;;;;10309751;28;20230;-75
2022/07/05 20:44:54;;;;;;;1.07;1.07;;;27.20;17.10;;;;;;10313735;28;21082;-75
2022/07/05 20:49:58;;;;;;;2.17;1.40;;;27.10;17.40;;;;;;10310554;28;20233;-73
2022/07/05 20:55:01;;;;;;;3.27;1.30;;;26.90;17.20;;;;;;10315691;28;20244;-76
2022/07/05 21:00:09;;;;;;;2.07;1.30;;;26.80;17.50;;;;;;10316073;28;20277;-75
2022/07/05 21:05:13;;;;;;;2.10;1.20;;;26.50;17.90;;;;;;10315511;28;20231;-75
2022/07/05 21:10:17;;;;;;;5.83;1.43;;;26.40;17.70;;;;;;10313400;28;20231;-76
2022/07/05 21:15:23;;;;;;;3.07;1.10;;;26.30;17.90;;;;;;10316385;28;22696;-76
2022/07/05 21:20:26;;;;;;;1.73;1.30;;;26.20;18.20;;;;;;10316980;28;20733;-76
2022/07/05 21:25:30;;;;;;;1.77;1.30;;;26.00;17.80;;;;;;10311752;28;20234;-76
2022/07/05 21:30:34;;;;;;;1.23;1.13;;;25.90;18.20;;;;;;10317966;28;20280;-76
2022/07/05 21:35:38;;;;;;;1.40;1.30;;;25.80;18.00;;;;;;10318672;28;20318;-76
2022/07/05 21:40:42;;;;;;;1.40;1.30;;;25.60;18.40;;;;;;10320501;28;20230;-76
2022/07/05 21:45:46;;;;;;;1.30;1.20;;;25.50;18.40;;;;;;10315025;28;20233;-73
2022/07/05 21:50:50;;;;;;;1.30;1.20;;;25.40;18.70;;;;;;10315989;28;20304;-73
2022/07/05 21:55:53;;;;;;;1.40;1.30;;;25.30;18.40;;;;;;10319416;28;20226;-73
2022/07/05 22:06:18;;;;;;;1.30;1.20;;;25.00;18.60;;;;;;10316119;28;20231;-73
2022/07/05 22:11:36;;;;;;;2.60;1.63;;;24.90;18.50;;;;;;10317635;28;20258;-73
2022/07/05 22:16:41;;;;;;;1.50;1.40;;;24.90;18.50;;;;;;10313595;28;20225;-73
2022/07/05 22:21:44;;;;;;;1.83;1.37;;;24.70;19.60;;;;;;10314355;28;20234;-73
2022/07/05 22:26:48;;;;;;;1.50;1.40;;;24.60;19.60;;;;;;10324782;28;20837;-73
2022/07/05 22:31:53;;;;;;;1.47;1.37;;;24.40;19.80;;;;;;10324848;28;20227;-75
2022/07/05 22:36:56;;;;;;;1.37;1.20;;;24.30;20.30;;;;;;10326439;28;20231;-76
2022/07/05 22:41:59;;;;;;;1.53;1.33;;;24.20;20.10;;;;;;10327849;28;20234;-76
2022/07/05 22:47:04;;;;;;;1.63;1.23;;;24.00;20.10;;;;;;10325452;28;20253;-75
2022/07/05 22:52:07;;;;;;;1.57;1.47;;;23.80;20.80;;;;;;10327173;28;20249;-75
2022/07/05 22:57:11;;;;;;;1.30;1.20;;;23.60;20.70;;;;;;10324624;28;20238;-71
2022/07/05 23:02:15;;;;;;;1.10;1.10;;;23.50;20.90;;;;;;10321686;28;20226;-71
2022/07/05 23:07:18;;;;;;;4.00;1.60;;;23.40;21.20;;;;;;10330781;28;20230;-75
2022/07/05 23:12:22;;;;;;;1.80;1.63;;;23.30;21.20;;;;;;10325740;28;20243;-75
2022/07/05 23:17:26;;;;;;;1.60;1.50;;;23.20;21.30;;;;;;10332322;28;20230;-75
2022/07/05 23:22:29;;;;;;;2.03;1.60;;;23.10;21.50;;;;;;10327371;28;20408;-74
2022/07/05 23:27:34;;;;;;;2.30;1.50;;;23.00;21.50;;;;;;10322445;28;20238;-74
2022/07/05 23:32:39;;;;;;;1.60;1.50;;;22.80;22.20;;;;;;10333157;28;20845;-71
2022/07/05 23:37:42;;;;;;;1.60;1.50;;;22.70;22.30;;;;;;10317334;28;20226;-71
2022/07/05 23:42:46;;;;;;;1.60;1.50;;;22.60;22.00;;;;;;10326281;28;20698;-76
2022/07/05 23:47:50;;;;;;;2.17;1.70;;;22.50;22.30;;;;;;10319450;28;20657;-71
2022/07/05 23:52:53;;;;;;;2.07;1.70;;;22.30;22.80;;;;;;10324193;28;20639;-71
2022/07/05 23:57:57;;;;;;;2.27;1.50;;;22.20;22.70;;;;;;10323771;28;20231;-71
